createdAt,value
2018-03-29T00:00:12.961Z,3.63
2018-03-29T00:02:40.466Z,3.97
2018-03-29T00:05:08.715Z,3.07
2018-03-29T00:07:36.314Z,2.97
2018-03-29T00:10:03.816Z,3.57
2018-03-29T00:12:31.303Z,3.93
2018-03-29T00:14:58.807Z,3.03
2018-03-29T00:17:26.430Z,3.70
2018-03-29T00:19:54.779Z,5.93
2018-03-29T00:22:22.399Z,2.87
2018-03-29T00:24:50.799Z,3.37
2018-03-29T00:27:19.174Z,2.87
2018-03-29T00:29:46.812Z,3.10
2018-03-29T00:32:14.358Z,3.00
2018-03-29T00:34:41.937Z,3.33
2018-03-29T00:37:09.507Z,3.43
2018-03-29T00:39:37.035Z,5.10
2018-03-29T00:42:05.267Z,4.20
2018-03-29T00:44:32.749Z,3.30
2018-03-29T00:47:00.295Z,3.90
2018-03-29T00:49:27.781Z,3.20
2018-03-29T00:51:55.290Z,2.70
2018-03-29T00:54:22.806Z,3.50
2018-03-29T00:56:50.284Z,3.53
2018-03-29T00:59:17.770Z,2.80
2018-03-29T01:01:45.250Z,2.60
2018-03-29T01:04:12.752Z,2.93
2018-03-29T01:06:41.009Z,3.30
2018-03-29T01:09:08.538Z,4.20
2018-03-29T01:11:36.775Z,3.37
2018-03-29T01:14:04.262Z,2.93
2018-03-29T01:16:31.783Z,3.43
2018-03-29T01:18:59.270Z,2.93
2018-03-29T01:21:26.741Z,2.67
2018-03-29T01:23:54.246Z,2.50
2018-03-29T01:26:21.747Z,2.83
2018-03-29T01:28:50.007Z,4.40
2018-03-29T01:31:17.492Z,2.70
2018-03-29T01:33:45.758Z,2.77
2018-03-29T01:36:13.321Z,6.43
2018-03-29T01:38:40.799Z,3.03
2018-03-29T01:41:08.306Z,4.70
2018-03-29T01:43:36.546Z,3.40
2018-03-29T01:46:04.038Z,2.90
2018-03-29T01:48:32.270Z,2.80
2018-03-29T01:50:59.763Z,3.07
2018-03-29T01:53:27.317Z,2.77
2018-03-29T01:55:54.832Z,6.40
2018-03-29T01:58:22.333Z,2.87
2018-03-29T02:00:49.822Z,2.60
2018-03-29T02:03:17.303Z,6.63
2018-03-29T02:05:44.855Z,3.50
2018-03-29T02:08:12.361Z,2.40
2018-03-29T02:10:39.885Z,2.83
2018-03-29T02:13:07.363Z,2.70
2018-03-29T02:15:34.863Z,2.10
2018-03-29T02:18:02.353Z,6.03
2018-03-29T02:20:29.850Z,2.67
2018-03-29T02:22:57.334Z,4.83
2018-03-29T02:25:25.615Z,10.23
2018-03-29T02:27:53.896Z,2.47
2018-03-29T02:30:21.400Z,2.70
2018-03-29T02:32:48.888Z,2.53
2018-03-29T02:35:16.391Z,2.07
2018-03-29T02:37:43.883Z,2.93
2018-03-29T02:40:12.141Z,4.20
2018-03-29T02:42:39.636Z,2.50
2018-03-29T02:45:07.103Z,2.70
2018-03-29T02:47:34.598Z,2.47
2018-03-29T02:50:02.847Z,2.47
2018-03-29T02:52:30.332Z,2.47
2018-03-29T02:54:57.813Z,2.77
2018-03-29T02:57:26.101Z,2.40
2018-03-29T02:59:53.609Z,2.40
2018-03-29T03:02:21.094Z,2.47
2018-03-29T03:04:48.586Z,2.00
2018-03-29T03:07:16.080Z,3.37
2018-03-29T03:09:45.147Z,2.40
2018-03-29T03:12:12.656Z,2.20
2018-03-29T03:14:40.906Z,2.10
2018-03-29T03:17:08.401Z,2.10
2018-03-29T03:19:35.922Z,2.10
2018-03-29T03:22:03.431Z,2.37
2018-03-29T03:24:30.934Z,2.40
2018-03-29T03:26:59.210Z,2.63
2018-03-29T03:29:26.695Z,3.43
2018-03-29T03:31:54.944Z,1.83
2018-03-29T03:34:22.420Z,3.00
2018-03-29T03:36:49.918Z,2.10
2018-03-29T03:39:18.169Z,6.90
2018-03-29T03:41:45.695Z,2.37
2018-03-29T03:44:13.951Z,3.37
2018-03-29T03:46:41.515Z,2.70
2018-03-29T03:49:09.015Z,2.73
2018-03-29T03:51:37.343Z,2.13
2018-03-29T03:54:04.828Z,1.97
2018-03-29T03:56:32.298Z,2.20
2018-03-29T03:58:59.790Z,2.20
2018-03-29T04:01:27.314Z,2.10
2018-03-29T04:03:54.802Z,2.30
2018-03-29T04:06:22.270Z,2.50
2018-03-29T04:08:50.530Z,2.30
2018-03-29T04:11:18.003Z,2.43
2018-03-29T04:13:45.494Z,3.10
2018-03-29T04:16:12.970Z,2.20
2018-03-29T04:18:40.455Z,1.93
2018-03-29T04:21:07.954Z,2.30
2018-03-29T04:23:35.452Z,2.17
2018-03-29T04:26:02.955Z,2.40
2018-03-29T04:28:30.472Z,2.50
2018-03-29T04:30:58.724Z,2.10
2018-03-29T04:33:26.202Z,2.03
2018-03-29T04:35:53.700Z,2.10
2018-03-29T04:38:21.241Z,2.00
2018-03-29T04:40:48.775Z,2.40
2018-03-29T04:43:16.282Z,1.90
2018-03-29T04:45:43.811Z,4.53
2018-03-29T04:48:11.340Z,2.10
2018-03-29T04:50:38.854Z,3.03
2018-03-29T04:53:06.339Z,2.20
2018-03-29T04:55:33.887Z,2.30
2018-03-29T04:58:01.326Z,2.17
2018-03-29T05:00:28.839Z,1.90
2018-03-29T05:02:56.372Z,1.90
2018-03-29T05:05:23.885Z,2.23
2018-03-29T05:07:51.404Z,1.90
2018-03-29T05:10:18.897Z,2.03
2018-03-29T05:12:46.473Z,1.97
2018-03-29T05:15:14.727Z,1.90
2018-03-29T05:17:42.239Z,2.00
2018-03-29T05:20:09.747Z,1.97
2018-03-29T05:22:37.221Z,2.03
2018-03-29T05:25:04.755Z,1.80
2018-03-29T05:27:32.317Z,2.10
2018-03-29T05:30:00.574Z,2.17
2018-03-29T05:32:28.068Z,1.77
2018-03-29T05:34:56.331Z,2.03
2018-03-29T05:37:23.798Z,2.73
2018-03-29T05:39:51.359Z,2.03
2018-03-29T05:42:18.866Z,1.73
2018-03-29T05:44:46.373Z,2.10
2018-03-29T05:47:14.615Z,2.27
2018-03-29T05:49:42.893Z,2.13
2018-03-29T05:52:10.384Z,2.03
2018-03-29T05:54:37.887Z,2.17
2018-03-29T05:57:05.407Z,2.30
2018-03-29T05:59:32.895Z,2.57
2018-03-29T06:02:00.378Z,1.90
2018-03-29T06:04:28.641Z,1.93
2018-03-29T06:06:56.135Z,2.13
2018-03-29T06:09:24.372Z,2.77
2018-03-29T06:11:51.878Z,2.73
2018-03-29T06:14:19.370Z,2.20
2018-03-29T06:16:46.860Z,2.73
2018-03-29T06:19:14.379Z,2.20
2018-03-29T06:21:42.667Z,2.33
2018-03-29T06:24:10.142Z,3.93
2018-03-29T06:26:37.631Z,2.30
2018-03-29T06:29:05.890Z,2.30
2018-03-29T06:31:33.413Z,3.37
2018-03-29T06:34:00.914Z,3.87
2018-03-29T06:36:28.476Z,3.40
2018-03-29T06:38:55.978Z,4.00
2018-03-29T06:41:23.467Z,2.27
2018-03-29T06:43:51.714Z,2.10
2018-03-29T06:46:19.239Z,2.30
2018-03-29T06:48:46.788Z,2.57
2018-03-29T06:51:14.299Z,2.07
2018-03-29T06:53:41.834Z,2.13
2018-03-29T06:56:10.092Z,3.43
2018-03-29T06:58:37.587Z,4.70
2018-03-29T07:01:05.082Z,3.70
2018-03-29T07:03:33.355Z,2.87
2018-03-29T07:06:00.847Z,3.30
2018-03-29T07:08:28.411Z,2.50
2018-03-29T07:10:55.969Z,2.40
2018-03-29T07:13:24.252Z,2.20
2018-03-29T07:15:52.519Z,2.33
2018-03-29T07:18:20.013Z,2.63
2018-03-29T07:20:47.510Z,2.63
2018-03-29T07:23:15.019Z,4.40
2018-03-29T07:25:42.514Z,3.60
2018-03-29T07:28:10.017Z,3.00
2018-03-29T07:30:37.557Z,2.53
2018-03-29T07:33:04.994Z,2.20
2018-03-29T07:35:32.469Z,2.47
2018-03-29T07:37:59.963Z,1.80
2018-03-29T07:40:27.450Z,2.97
2018-03-29T07:42:55.699Z,3.93
2018-03-29T07:45:23.191Z,3.67
2018-03-29T07:47:50.678Z,2.37
2018-03-29T07:50:18.956Z,2.27
2018-03-29T07:52:46.465Z,2.57
2018-03-29T07:55:13.963Z,2.73
2018-03-29T07:57:41.452Z,2.07
2018-03-29T08:00:08.971Z,2.20
2018-03-29T08:02:37.218Z,2.40
2018-03-29T08:05:04.695Z,2.10
2018-03-29T08:07:32.200Z,2.80
2018-03-29T08:10:00.447Z,3.87
2018-03-29T08:12:27.960Z,2.60
2018-03-29T08:14:56.213Z,2.30
2018-03-29T08:17:23.695Z,2.70
2018-03-29T08:19:51.186Z,2.33
2018-03-29T08:22:18.692Z,2.07
2018-03-29T08:24:46.200Z,2.57
2018-03-29T08:27:13.677Z,2.77
2018-03-29T08:29:41.165Z,2.60
2018-03-29T08:32:09.403Z,2.50
2018-03-29T08:34:36.903Z,3.10
2018-03-29T08:37:05.176Z,4.10
2018-03-29T08:39:32.691Z,2.83
2018-03-29T08:42:00.199Z,3.90
2018-03-29T08:44:28.490Z,2.50
2018-03-29T08:46:56.010Z,2.30
2018-03-29T08:49:24.279Z,2.70
2018-03-29T08:51:51.775Z,2.30
2018-03-29T08:54:23.998Z,3.77
2018-03-29T08:56:51.487Z,2.43
2018-03-29T08:59:19.001Z,2.07
2018-03-29T09:01:46.497Z,2.37
2018-03-29T09:04:13.983Z,3.43
2018-03-29T09:06:41.528Z,3.83
2018-03-29T09:09:09.029Z,2.30
2018-03-29T09:11:36.556Z,2.00
2018-03-29T09:14:04.818Z,2.50
2018-03-29T09:16:32.308Z,2.43
2018-03-29T09:19:00.663Z,6.00
2018-03-29T09:21:33.992Z,4.60
2018-03-29T09:24:02.247Z,3.90
2018-03-29T09:26:30.570Z,2.70
2018-03-29T09:28:58.086Z,4.80
2018-03-29T09:31:25.569Z,3.03
2018-03-29T09:33:53.054Z,5.73
2018-03-29T09:36:20.560Z,4.83
2018-03-29T09:38:48.799Z,5.40
2018-03-29T09:41:16.337Z,5.43
2018-03-29T09:43:43.815Z,6.10
2018-03-29T09:46:11.331Z,3.37
2018-03-29T09:48:38.839Z,8.97
2018-03-29T09:51:07.082Z,4.97
2018-03-29T09:53:34.568Z,4.30
2018-03-29T09:56:02.057Z,9.97
2018-03-29T09:58:30.286Z,7.77
2018-03-29T10:01:03.366Z,4.47
2018-03-29T10:03:30.847Z,6.43
2018-03-29T10:06:04.295Z,6.77
2018-03-29T10:08:31.778Z,4.00
2018-03-29T10:10:59.271Z,7.20
2018-03-29T10:13:27.559Z,10.97
2018-03-29T10:15:55.798Z,6.30
2018-03-29T10:18:23.339Z,8.13
2018-03-29T10:20:50.842Z,9.07
2018-03-29T10:23:18.352Z,5.60
2018-03-29T10:25:46.623Z,6.50
2018-03-29T10:28:14.102Z,9.43
2018-03-29T10:30:41.607Z,4.23
2018-03-29T10:33:09.131Z,5.50
2018-03-29T10:35:36.621Z,8.03
2018-03-29T10:38:04.890Z,7.90
2018-03-29T10:40:32.424Z,6.73
2018-03-29T10:42:59.913Z,9.73
2018-03-29T10:45:27.441Z,7.30
2018-03-29T10:47:55.711Z,9.80
2018-03-29T10:50:23.243Z,6.53
2018-03-29T10:52:50.735Z,6.27
2018-03-29T10:55:18.220Z,8.27
2018-03-29T10:57:45.741Z,4.03
2018-03-29T11:00:13.364Z,8.33
2018-03-29T11:02:40.858Z,4.87
2018-03-29T11:05:09.087Z,5.77
2018-03-29T11:07:36.566Z,7.90
2018-03-29T11:10:04.059Z,5.60
2018-03-29T11:12:31.696Z,4.83
2018-03-29T11:14:59.195Z,9.07
2018-03-29T11:17:26.720Z,6.57
2018-03-29T11:19:54.219Z,3.23
2018-03-29T11:22:21.706Z,8.70
2018-03-29T11:24:49.211Z,7.90
2018-03-29T11:27:16.696Z,7.23
2018-03-29T11:29:44.230Z,7.50
2018-03-29T11:32:11.724Z,7.50
2018-03-29T11:34:39.243Z,8.70
2018-03-29T11:37:06.722Z,6.50
2018-03-29T11:39:34.210Z,6.53
2018-03-29T11:42:01.699Z,4.87
2018-03-29T11:44:29.939Z,6.90
2018-03-29T11:46:57.426Z,4.40
2018-03-29T11:49:24.925Z,7.07
2018-03-29T11:51:52.422Z,8.00
2018-03-29T11:54:20.679Z,7.27
2018-03-29T11:56:48.949Z,5.77
2018-03-29T11:59:16.486Z,5.50
2018-03-29T12:01:44.011Z,6.30
2018-03-29T12:04:12.260Z,10.00
2018-03-29T12:06:39.727Z,8.10
2018-03-29T12:09:07.995Z,4.47
2018-03-29T12:11:35.480Z,6.47
2018-03-29T12:14:02.967Z,4.87
2018-03-29T12:16:30.479Z,5.63
2018-03-29T12:18:58.724Z,9.50
2018-03-29T12:21:26.194Z,5.23
2018-03-29T12:23:53.675Z,6.10
2018-03-29T12:26:21.946Z,3.73
2018-03-29T12:28:49.427Z,2.93
2018-03-29T12:31:17.010Z,5.53
2018-03-29T12:33:44.500Z,2.83
2018-03-29T12:36:12.776Z,5.10
2018-03-29T12:38:40.288Z,2.70
2018-03-29T12:41:07.779Z,6.10
2018-03-29T12:43:35.271Z,5.53
2018-03-29T12:46:02.765Z,2.80
2018-03-29T12:48:31.019Z,4.27
2018-03-29T12:50:58.500Z,5.17
2018-03-29T12:53:25.989Z,3.10
2018-03-29T12:55:53.491Z,3.00
2018-03-29T12:58:21.038Z,2.77
2018-03-29T13:00:49.307Z,4.53
2018-03-29T13:03:16.825Z,2.60
2018-03-29T13:05:45.077Z,3.17
2018-03-29T13:08:13.364Z,2.30
2018-03-29T13:10:40.855Z,4.87
2018-03-29T13:13:09.122Z,1.90
2018-03-29T13:15:36.609Z,1.80
2018-03-29T13:18:04.885Z,3.47
2018-03-29T13:20:32.379Z,3.00
2018-03-29T13:23:00.627Z,4.03
2018-03-29T13:25:28.099Z,2.53
2018-03-29T13:27:55.620Z,5.00
2018-03-29T13:30:23.128Z,3.57
2018-03-29T13:32:50.610Z,4.83
2018-03-29T13:35:18.101Z,5.07
2018-03-29T13:37:46.348Z,4.87
2018-03-29T13:40:13.823Z,3.00
2018-03-29T13:42:41.316Z,5.30
2018-03-29T13:45:08.802Z,3.97
2018-03-29T13:47:37.063Z,6.07
2018-03-29T13:50:04.559Z,2.57
2018-03-29T13:52:32.848Z,6.33
2018-03-29T13:55:00.334Z,3.87
2018-03-29T13:57:27.873Z,3.90
2018-03-29T13:59:55.357Z,3.60
2018-03-29T14:02:22.843Z,8.13
2018-03-29T14:04:50.342Z,4.00
2018-03-29T14:07:17.824Z,4.03
2018-03-29T14:09:45.307Z,4.50
2018-03-29T14:12:12.794Z,3.53
2018-03-29T14:14:40.290Z,3.97
2018-03-29T14:17:07.787Z,3.97
2018-03-29T14:19:36.114Z,4.50
2018-03-29T14:22:03.630Z,4.47
2018-03-29T14:24:31.905Z,4.67
2018-03-29T14:27:00.170Z,3.10
2018-03-29T14:29:27.654Z,4.40
2018-03-29T14:31:55.157Z,3.67
2018-03-29T14:34:22.698Z,6.63
2018-03-29T14:36:51.013Z,3.40
2018-03-29T14:39:18.538Z,2.60
2018-03-29T14:41:46.026Z,4.43
2018-03-29T14:44:14.277Z,5.40
2018-03-29T14:46:41.770Z,4.13
2018-03-29T14:49:09.264Z,4.80
2018-03-29T14:51:37.499Z,4.47
2018-03-29T14:54:05.070Z,3.37
2018-03-29T14:56:32.554Z,2.40
2018-03-29T14:59:00.048Z,2.70
2018-03-29T15:01:28.307Z,2.17
2018-03-29T15:03:55.780Z,3.03
2018-03-29T15:06:23.285Z,4.70
2018-03-29T15:08:51.535Z,3.20
2018-03-29T15:11:19.030Z,2.47
2018-03-29T15:13:46.540Z,3.80
2018-03-29T15:16:14.781Z,2.60
2018-03-29T15:18:42.346Z,2.70
2018-03-29T15:21:09.841Z,2.83
2018-03-29T15:23:37.321Z,3.33
2018-03-29T15:26:05.579Z,3.63
2018-03-29T15:28:33.156Z,3.30
2018-03-29T15:31:00.670Z,3.77
2018-03-29T15:33:28.138Z,4.20
2018-03-29T15:35:56.390Z,3.60
2018-03-29T15:38:23.878Z,3.63
2018-03-29T15:40:51.382Z,4.50
2018-03-29T15:43:19.666Z,5.00
2018-03-29T15:45:47.152Z,3.67
2018-03-29T15:48:15.409Z,4.07
2018-03-29T15:50:43.730Z,4.63
2018-03-29T15:53:11.163Z,4.00
2018-03-29T15:55:39.472Z,3.73
2018-03-29T15:58:06.976Z,5.07
2018-03-29T16:00:34.523Z,5.57
2018-03-29T16:03:02.135Z,6.33
2018-03-29T16:05:29.590Z,3.97
2018-03-29T16:07:57.081Z,5.40
2018-03-29T16:10:24.597Z,5.23
2018-03-29T16:12:52.102Z,4.80
2018-03-29T16:15:20.371Z,5.20
2018-03-29T16:17:47.867Z,8.57
2018-03-29T16:20:15.393Z,3.50
2018-03-29T16:22:42.891Z,4.40
2018-03-29T16:25:10.366Z,3.80
2018-03-29T16:27:37.857Z,7.20
2018-03-29T16:30:05.331Z,4.53
2018-03-29T16:32:32.819Z,4.53
2018-03-29T16:35:00.313Z,5.13
2018-03-29T16:37:28.569Z,4.63
2018-03-29T16:39:56.056Z,4.00
2018-03-29T16:42:24.399Z,6.37
2018-03-29T16:44:52.694Z,5.60
2018-03-29T16:47:20.230Z,7.33
2018-03-29T16:49:47.716Z,8.50
2018-03-29T16:52:15.309Z,5.37
2018-03-29T16:54:42.827Z,4.17
2018-03-29T16:57:10.337Z,4.63
2018-03-29T16:59:37.809Z,6.20
2018-03-29T17:02:05.299Z,5.30
2018-03-29T17:04:32.783Z,4.67
2018-03-29T17:07:00.313Z,5.03
2018-03-29T17:09:27.824Z,6.30
2018-03-29T17:11:55.331Z,4.70
2018-03-29T17:14:22.866Z,6.63
2018-03-29T17:16:50.383Z,5.30
2018-03-29T17:19:18.631Z,7.40
2018-03-29T17:21:46.888Z,7.40
2018-03-29T17:24:14.425Z,7.90
2018-03-29T17:26:41.929Z,14.53
2018-03-29T17:29:09.780Z,6.70
2018-03-29T17:31:37.293Z,4.63
2018-03-29T17:34:04.861Z,6.27
2018-03-29T17:36:32.420Z,10.17
2018-03-29T17:38:59.917Z,4.97
2018-03-29T17:41:27.406Z,7.00
2018-03-29T17:43:54.884Z,9.40
2018-03-29T17:46:23.134Z,12.07
2018-03-29T17:48:50.726Z,14.00
2018-03-29T17:51:18.203Z,14.27
2018-03-29T17:53:46.459Z,17.67
2018-03-29T17:56:14.005Z,15.67
2018-03-29T17:58:41.573Z,16.50
2018-03-29T18:01:10.038Z,17.67
2018-03-29T18:03:37.605Z,27.17
2018-03-29T18:06:05.866Z,21.40
2018-03-29T18:08:33.356Z,19.50
2018-03-29T18:11:01.640Z,15.87
2018-03-29T18:13:29.132Z,18.67
2018-03-29T18:15:57.415Z,19.43
2018-03-29T18:18:25.686Z,19.27
2018-03-29T18:20:53.181Z,17.53
2018-03-29T18:23:21.447Z,16.70
2018-03-29T18:25:48.919Z,17.33
2018-03-29T18:28:16.430Z,19.00
2018-03-29T18:30:43.949Z,17.47
2018-03-29T18:33:11.413Z,16.57
2018-03-29T18:35:38.911Z,14.17
2018-03-29T18:38:07.164Z,19.33
2018-03-29T18:40:34.670Z,19.43
2018-03-29T18:43:02.963Z,20.07
2018-03-29T18:45:30.455Z,17.87
2018-03-29T18:47:57.987Z,20.43
2018-03-29T18:50:25.490Z,21.07
2018-03-29T18:52:53.007Z,17.00
2018-03-29T18:55:20.494Z,15.77
2018-03-29T18:57:47.986Z,15.80
2018-03-29T19:00:16.245Z,16.43
2018-03-29T19:02:43.732Z,14.53
2018-03-29T19:05:11.275Z,18.70
2018-03-29T19:07:38.765Z,16.10
2018-03-29T19:10:06.289Z,15.00
2018-03-29T19:12:33.834Z,12.90
2018-03-29T19:15:02.114Z,12.23
2018-03-29T19:17:30.393Z,14.07
2018-03-29T19:19:58.651Z,15.10
2018-03-29T19:22:26.204Z,20.20
2018-03-29T19:24:53.703Z,14.03
2018-03-29T19:27:21.183Z,19.93
2018-03-29T19:29:48.676Z,14.17
2018-03-29T19:32:16.947Z,16.37
2018-03-29T19:34:44.447Z,13.30
2018-03-29T19:37:12.700Z,14.23
2018-03-29T19:39:40.191Z,10.80
2018-03-29T19:42:07.687Z,17.77
2018-03-29T19:44:35.197Z,12.67
2018-03-29T19:47:02.678Z,15.80
2018-03-29T19:49:31.650Z,12.23
2018-03-29T19:51:59.154Z,15.70
2018-03-29T19:54:27.392Z,12.00
2018-03-29T19:56:54.906Z,18.67
2018-03-29T19:59:22.411Z,20.50
2018-03-29T20:01:50.684Z,17.63
2018-03-29T20:04:18.181Z,21.03
2018-03-29T20:06:46.450Z,22.80
2018-03-29T20:09:13.938Z,24.93
2018-03-29T20:11:42.235Z,24.60
2018-03-29T20:14:09.776Z,24.00
2018-03-29T20:16:38.090Z,25.57
2018-03-29T20:19:05.725Z,24.80
2018-03-29T20:21:33.282Z,21.73
2018-03-29T20:24:00.767Z,28.73
2018-03-29T20:26:28.277Z,22.83
2018-03-29T20:28:55.802Z,19.10
2018-03-29T20:31:23.279Z,26.67
2018-03-29T20:33:50.789Z,25.00
2018-03-29T20:36:19.089Z,20.23
2018-03-29T20:38:47.347Z,19.23
2018-03-29T20:41:15.884Z,25.50
2018-03-29T20:43:44.326Z,24.60
2018-03-29T20:46:11.823Z,19.07
2018-03-29T20:48:40.237Z,18.03
2018-03-29T20:51:07.750Z,19.57
2018-03-29T20:53:37.526Z,18.20
2018-03-29T20:56:05.098Z,20.53
2018-03-29T20:58:32.633Z,23.53
2018-03-29T21:01:01.125Z,21.30
2018-03-29T21:03:29.519Z,20.23
2018-03-29T21:05:57.778Z,15.87
2018-03-29T21:08:25.267Z,18.03
2018-03-29T21:10:52.758Z,16.60
2018-03-29T21:13:21.040Z,16.77
2018-03-29T21:15:49.304Z,16.70
2018-03-29T21:18:16.867Z,17.60
2018-03-29T21:20:44.364Z,16.37
2018-03-29T21:23:11.879Z,17.90
2018-03-29T21:25:39.383Z,13.40
2018-03-29T21:28:06.887Z,15.13
2018-03-29T21:30:35.141Z,16.97
2018-03-29T21:33:02.663Z,15.00
2018-03-29T21:35:31.152Z,16.53
2018-03-29T21:37:59.515Z,16.97
2018-03-29T21:40:30.823Z,15.27
2018-03-29T21:42:58.318Z,15.67
2018-03-29T21:45:25.850Z,15.20
2018-03-29T21:47:54.100Z,17.60
2018-03-29T21:50:21.603Z,14.20
2018-03-29T21:52:49.919Z,12.87
2018-03-29T21:55:17.522Z,12.97
2018-03-29T21:57:45.329Z,13.23
2018-03-29T22:00:15.656Z,14.33
2018-03-29T22:02:43.962Z,13.77
2018-03-29T22:05:11.580Z,11.30
2018-03-29T22:07:39.527Z,12.07
2018-03-29T22:10:07.788Z,12.30
2018-03-29T22:12:35.264Z,14.00
2018-03-29T22:17:44.654Z,12.60
2018-03-29T22:20:16.487Z,11.50
2018-03-29T22:22:49.109Z,12.77
2018-03-29T22:25:29.339Z,14.33
2018-03-29T22:28:02.128Z,10.30
2018-03-29T22:30:29.667Z,12.27
2018-03-29T22:33:07.956Z,15.37
2018-03-29T22:35:35.643Z,13.10
2018-03-29T22:38:07.523Z,12.17
2018-03-29T22:40:35.577Z,11.17
2018-03-29T22:43:03.595Z,10.33
2018-03-29T22:45:33.609Z,11.40
2018-03-29T22:48:01.106Z,12.93
2018-03-29T22:50:29.390Z,10.97
2018-03-29T22:52:57.102Z,10.47
2018-03-29T22:55:24.595Z,11.33
2018-03-29T22:57:52.994Z,10.13
2018-03-29T23:00:35.006Z,10.83
2018-03-29T23:03:02.485Z,10.30
2018-03-29T23:05:29.994Z,11.53
2018-03-29T23:07:57.499Z,10.17
2018-03-29T23:10:24.998Z,9.70
2018-03-29T23:12:52.476Z,9.70
2018-03-29T23:15:20.751Z,8.90
2018-03-29T23:17:48.296Z,11.30
2018-03-29T23:20:15.795Z,11.67
2018-03-29T23:22:43.318Z,12.70
2018-03-29T23:25:10.830Z,11.40
2018-03-29T23:27:38.315Z,7.90
2018-03-29T23:30:05.826Z,8.97
2018-03-29T23:32:33.334Z,10.07
2018-03-29T23:35:00.993Z,10.90
2018-03-29T23:37:28.590Z,10.50
2018-03-29T23:39:56.188Z,10.40
2018-03-29T23:42:23.675Z,12.80
2018-03-29T23:44:51.935Z,11.60
2018-03-29T23:47:19.443Z,11.57
2018-03-29T23:49:47.077Z,8.50
2018-03-29T23:52:14.634Z,8.63
2018-03-29T23:54:42.118Z,10.03
2018-03-29T23:57:09.674Z,12.27
2018-03-29T23:59:37.199Z,12.03
